createdAt,value
2019-04-30T00:00:07.148Z,97.09
2019-04-30T00:02:01.268Z,97.07
2019-04-30T00:03:39.901Z,96.84
2019-04-30T00:05:18.712Z,96.92
2019-04-30T00:06:50.936Z,97.01
2019-04-30T00:08:30.031Z,96.98
2019-04-30T00:10:02.094Z,97.01
2019-04-30T00:11:36.841Z,96.92
2019-04-30T00:13:17.538Z,97.16
2019-04-30T00:14:48.039Z,97.12
2019-04-30T00:16:25.274Z,96.73
2019-04-30T00:18:01.812Z,97.24
2019-04-30T00:19:36.519Z,97.18
2019-04-30T00:21:15.225Z,96.93
2019-04-30T00:22:50.404Z,96.88
2019-04-30T00:24:25.812Z,97.37
2019-04-30T00:26:06.025Z,97.25
2019-04-30T00:27:37.785Z,97.44
2019-04-30T00:29:12.420Z,97.40
2019-04-30T00:30:47.847Z,97.45
2019-04-30T00:32:22.569Z,97.47
2019-04-30T00:34:01.280Z,97.56
2019-04-30T00:35:35.549Z,97.48
2019-04-30T00:37:13.945Z,97.56
2019-04-30T00:38:46.793Z,97.55
2019-04-30T00:40:25.705Z,97.67
2019-04-30T00:41:58.929Z,97.88
2019-04-30T00:43:35.371Z,97.81
2019-04-30T00:45:10.834Z,97.48
2019-04-30T00:46:47.930Z,97.17
2019-04-30T00:48:27.926Z,96.67
2019-04-30T00:50:00.331Z,96.50
2019-04-30T00:51:35.460Z,96.10
2019-04-30T00:53:12.442Z,95.93
2019-04-30T00:54:46.746Z,95.83
2019-04-30T00:56:26.462Z,96.38
2019-04-30T00:57:57.820Z,96.79
2019-04-30T00:59:35.069Z,96.54
2019-04-30T01:01:29.787Z,96.60
2019-04-30T01:03:15.882Z,96.42
2019-04-30T01:04:53.316Z,96.94
2019-04-30T01:06:28.732Z,97.04
2019-04-30T01:08:04.981Z,96.72
2019-04-30T01:09:46.419Z,96.64
2019-04-30T01:11:16.617Z,96.82
2019-04-30T01:12:51.260Z,97.01
2019-04-30T01:14:28.419Z,97.16
2019-04-30T01:16:02.651Z,97.19
2019-04-30T01:17:38.259Z,97.17
2019-04-30T01:19:27.572Z,97.31
2019-04-30T01:20:50.103Z,97.18
2019-04-30T01:22:28.019Z,97.29
2019-04-30T01:24:01.540Z,97.34
2019-04-30T01:25:36.275Z,97.24
2019-04-30T01:27:10.936Z,97.38
2019-04-30T01:28:45.661Z,97.54
2019-04-30T01:30:22.753Z,97.67
2019-04-30T01:31:58.601Z,97.67
2019-04-30T01:33:34.683Z,97.70
2019-04-30T01:35:09.764Z,97.67
2019-04-30T01:36:48.421Z,97.73
2019-04-30T01:38:20.864Z,97.60
2019-04-30T01:39:55.542Z,97.76
2019-04-30T01:41:31.433Z,97.59
2019-04-30T01:43:09.105Z,97.36
2019-04-30T01:44:50.455Z,97.30
2019-04-30T01:46:20.966Z,97.30
2019-04-30T01:48:00.592Z,97.65
2019-04-30T01:49:41.943Z,97.75
2019-04-30T01:51:13.344Z,97.69
2019-04-30T01:52:54.909Z,97.66
2019-04-30T01:54:29.668Z,97.83
2019-04-30T01:56:15.998Z,97.69
2019-04-30T01:58:01.546Z,97.59
2019-04-30T01:59:53.864Z,97.68
2019-04-30T02:01:31.135Z,97.51
2019-04-30T02:03:06.045Z,97.20
2019-04-30T02:04:40.681Z,97.27
2019-04-30T02:06:15.415Z,97.24
2019-04-30T02:07:50.060Z,97.23
2019-04-30T02:09:24.708Z,97.46
2019-04-30T02:10:59.584Z,97.52
2019-04-30T02:12:34.359Z,97.46
2019-04-30T02:14:09.136Z,97.61
2019-04-30T02:15:43.814Z,97.64
2019-04-30T02:17:19.257Z,97.83
2019-04-30T02:18:54.083Z,97.88
2019-04-30T02:20:28.909Z,97.75
2019-04-30T02:22:03.715Z,97.68
2019-04-30T02:23:39.209Z,97.46
2019-04-30T02:25:14.082Z,97.53
2019-04-30T02:26:48.743Z,97.30
2019-04-30T02:28:23.390Z,97.31
2019-04-30T02:29:59.478Z,97.19
2019-04-30T02:31:34.430Z,97.10
2019-04-30T02:33:09.581Z,97.29
2019-04-30T02:34:51.563Z,97.25
2019-04-30T02:36:40.314Z,97.29
2019-04-30T02:38:20.304Z,97.42
2019-04-30T02:39:55.132Z,97.29
2019-04-30T02:41:30.369Z,97.35
2019-04-30T02:43:05.136Z,97.53
2019-04-30T02:44:40.774Z,97.37
2019-04-30T02:46:19.035Z,97.38
2019-04-30T02:47:53.218Z,97.42
2019-04-30T02:49:30.371Z,97.48
2019-04-30T02:51:07.133Z,97.37
2019-04-30T02:52:42.570Z,97.35
2019-04-30T02:54:23.866Z,97.27
2019-04-30T02:55:56.810Z,96.92
2019-04-30T02:57:31.473Z,97.19
2019-04-30T02:59:06.123Z,97.25
2019-04-30T03:00:40.789Z,97.39
2019-04-30T03:02:15.578Z,97.27
2019-04-30T03:03:50.418Z,97.38
2019-04-30T03:05:25.162Z,97.62
2019-04-30T03:07:00.767Z,97.39
2019-04-30T03:08:35.418Z,97.14
2019-04-30T03:10:10.387Z,97.23
2019-04-30T03:11:45.136Z,97.14
2019-04-30T03:13:20.172Z,96.96
2019-04-30T03:14:54.884Z,96.60
2019-04-30T03:16:46.009Z,96.68
2019-04-30T03:18:26.234Z,96.66
2019-04-30T03:20:03.428Z,96.85
2019-04-30T03:21:51.940Z,96.67
2019-04-30T03:23:29.184Z,96.47
2019-04-30T03:25:03.470Z,96.79
2019-04-30T03:26:40.097Z,96.86
2019-04-30T03:28:14.565Z,96.89
2019-04-30T03:29:50.349Z,96.87
2019-04-30T03:31:25.179Z,96.75
2019-04-30T03:33:02.841Z,96.66
2019-04-30T03:34:36.165Z,96.63
2019-04-30T03:36:12.661Z,95.90
2019-04-30T03:37:49.545Z,95.54
2019-04-30T03:39:23.552Z,95.47
2019-04-30T03:41:00.181Z,95.82
2019-04-30T03:42:34.554Z,95.54
2019-04-30T03:44:18.512Z,95.65
2019-04-30T03:45:45.630Z,95.43
2019-04-30T03:47:20.531Z,94.84
2019-04-30T03:48:55.274Z,94.76
2019-04-30T03:50:48.228Z,95.31
2019-04-30T03:52:06.296Z,95.02
2019-04-30T03:53:42.750Z,95.10
2019-04-30T03:55:17.268Z,95.39
2019-04-30T03:56:53.510Z,95.13
2019-04-30T03:58:29.273Z,95.10
2019-04-30T04:00:04.639Z,94.87
2019-04-30T04:01:51.733Z,95.06
2019-04-30T04:03:26.361Z,94.97
2019-04-30T04:05:15.747Z,94.81
2019-04-30T04:06:56.518Z,94.58
2019-04-30T04:08:43.229Z,93.66
2019-04-30T04:10:31.548Z,93.37
2019-04-30T04:12:21.166Z,92.97
2019-04-30T04:13:55.924Z,92.55
2019-04-30T04:15:30.684Z,92.12
2019-04-30T04:17:05.432Z,92.07
2019-04-30T04:18:40.417Z,91.96
2019-04-30T04:20:15.102Z,91.84
2019-04-30T04:21:51.032Z,91.90
2019-04-30T04:23:25.991Z,92.01
2019-04-30T04:25:01.734Z,91.93
2019-04-30T04:26:37.461Z,91.83
2019-04-30T04:28:12.215Z,91.92
2019-04-30T04:29:46.954Z,91.59
2019-04-30T04:31:21.627Z,91.57
2019-04-30T04:32:56.297Z,91.70
2019-04-30T04:34:31.070Z,91.99
2019-04-30T04:36:05.721Z,92.07
2019-04-30T04:37:40.455Z,92.15
2019-04-30T04:39:15.103Z,91.46
2019-04-30T04:40:50.366Z,90.23
2019-04-30T04:42:25.184Z,90.19
2019-04-30T04:44:00.310Z,90.86
2019-04-30T04:45:35.004Z,90.19
2019-04-30T04:47:11.913Z,90.19
2019-04-30T04:48:46.078Z,91.04
2019-04-30T04:50:20.700Z,90.28
2019-04-30T04:51:55.367Z,90.81
2019-04-30T04:53:30.591Z,89.98
2019-04-30T04:55:05.582Z,89.00
2019-04-30T04:56:40.232Z,87.93
2019-04-30T04:58:14.991Z,87.81
2019-04-30T04:59:50.153Z,86.86
2019-04-30T05:01:24.959Z,87.60
2019-04-30T05:03:23.202Z,86.70
2019-04-30T05:05:00.003Z,85.56
2019-04-30T05:06:34.285Z,85.56
2019-04-30T05:08:08.931Z,84.92
2019-04-30T05:09:43.588Z,83.25
2019-04-30T05:11:19.220Z,83.48
2019-04-30T05:12:54.052Z,81.48
2019-04-30T05:14:28.904Z,79.63
2019-04-30T05:16:05.413Z,80.79
2019-04-30T05:17:40.065Z,78.84
2019-04-30T05:19:14.818Z,78.03
2019-04-30T05:20:49.476Z,75.79
2019-04-30T05:22:24.210Z,74.14
2019-04-30T05:23:59.160Z,71.45
2019-04-30T05:25:34.368Z,73.42
2019-04-30T05:27:09.248Z,75.17
2019-04-30T05:28:43.937Z,75.69
2019-04-30T05:30:19.838Z,72.89
2019-04-30T05:31:54.817Z,72.78
2019-04-30T05:33:29.480Z,73.47
2019-04-30T05:35:04.247Z,67.25
2019-04-30T05:36:39.266Z,61.21
2019-04-30T05:38:13.937Z,53.30
2019-04-30T05:39:48.976Z,51.75
2019-04-30T05:41:23.770Z,51.17
2019-04-30T05:43:00.311Z,51.17
2019-04-30T05:44:34.893Z,59.31
2019-04-30T05:46:11.143Z,65.60
2019-04-30T05:47:45.912Z,59.26
2019-04-30T05:49:20.592Z,59.26
2019-04-30T05:50:56.249Z,58.96
2019-04-30T05:52:31.006Z,62.58
2019-04-30T05:54:05.705Z,63.49
2019-04-30T05:55:40.380Z,59.30
2019-04-30T05:57:15.024Z,56.90
2019-04-30T05:58:49.691Z,49.44
2019-04-30T06:00:24.490Z,45.59
2019-04-30T06:02:00.176Z,40.98
2019-04-30T06:03:34.907Z,58.17
2019-04-30T06:05:09.810Z,58.17
2019-04-30T06:06:44.574Z,47.37
2019-04-30T06:08:20.979Z,42.73
2019-04-30T06:10:13.923Z,39.73
2019-04-30T06:12:11.423Z,42.61
2019-04-30T06:14:04.323Z,38.60
2019-04-30T06:15:49.008Z,39.89
2019-04-30T06:17:25.026Z,37.15
2019-04-30T06:18:59.773Z,35.96
2019-04-30T06:20:34.442Z,39.30
2019-04-30T06:22:10.963Z,35.67
2019-04-30T06:23:45.617Z,36.24
2019-04-30T06:25:31.077Z,35.84
2019-04-30T06:26:56.819Z,33.98
2019-04-30T06:28:33.441Z,33.91
2019-04-30T06:30:09.691Z,34.33
2019-04-30T06:31:45.051Z,33.44
2019-04-30T06:33:19.953Z,37.48
2019-04-30T06:34:54.691Z,30.90
2019-04-30T06:36:29.939Z,32.51
2019-04-30T06:38:04.768Z,29.40
2019-04-30T06:39:39.503Z,31.52
2019-04-30T06:41:14.148Z,30.90
2019-04-30T06:42:49.565Z,34.36
2019-04-30T06:44:34.884Z,30.77
2019-04-30T06:46:00.971Z,31.48
2019-04-30T06:47:36.485Z,32.57
2019-04-30T06:49:11.512Z,37.71
2019-04-30T06:50:49.091Z,32.61
2019-04-30T06:52:23.823Z,32.68
2019-04-30T06:53:58.722Z,33.10
2019-04-30T06:55:33.417Z,38.59
2019-04-30T06:57:09.783Z,40.27
2019-04-30T06:58:44.486Z,40.46
2019-04-30T07:00:20.833Z,43.70
2019-04-30T07:01:55.642Z,46.09
2019-04-30T07:03:30.290Z,49.19
2019-04-30T07:05:05.633Z,35.79
2019-04-30T07:06:43.877Z,42.26
2019-04-30T07:08:39.483Z,35.66
2019-04-30T07:10:21.543Z,37.23
2019-04-30T07:12:25.524Z,36.14
2019-04-30T07:13:52.591Z,34.89
2019-04-30T07:15:29.515Z,32.76
2019-04-30T07:17:03.696Z,37.88
2019-04-30T07:18:38.830Z,36.18
2019-04-30T07:20:14.812Z,35.45
2019-04-30T07:21:49.722Z,37.56
2019-04-30T07:23:24.428Z,32.82
2019-04-30T07:24:59.540Z,31.65
2019-04-30T07:26:34.334Z,31.49
2019-04-30T07:28:09.209Z,35.87
2019-04-30T07:29:43.952Z,38.66
2019-04-30T07:31:19.318Z,42.24
2019-04-30T07:32:54.163Z,41.37
2019-04-30T07:34:30.257Z,43.32
2019-04-30T07:36:05.361Z,40.01
2019-04-30T07:37:40.130Z,39.64
2019-04-30T07:39:19.081Z,43.46
2019-04-30T07:40:53.545Z,35.68
2019-04-30T07:42:29.472Z,39.68
2019-04-30T07:44:04.741Z,38.27
2019-04-30T07:45:39.891Z,38.05
2019-04-30T07:47:14.646Z,29.38
2019-04-30T07:48:50.146Z,32.35
2019-04-30T07:50:25.695Z,29.85
2019-04-30T07:52:01.797Z,31.99
2019-04-30T07:53:37.029Z,30.25
2019-04-30T07:55:11.669Z,34.13
2019-04-30T07:56:46.396Z,36.60
2019-04-30T07:58:20.991Z,32.51
2019-04-30T07:59:55.672Z,33.42
2019-04-30T08:01:30.367Z,35.62
2019-04-30T08:03:12.638Z,36.05
2019-04-30T08:04:53.170Z,38.85
2019-04-30T08:06:30.853Z,36.47
2019-04-30T08:08:20.286Z,33.86
2019-04-30T08:09:42.298Z,41.79
2019-04-30T08:11:25.736Z,35.24
2019-04-30T08:12:54.085Z,30.76
2019-04-30T08:14:28.893Z,32.43
2019-04-30T08:16:03.561Z,34.88
2019-04-30T08:17:38.889Z,34.31
2019-04-30T08:19:13.825Z,36.04
2019-04-30T08:20:49.062Z,33.21
2019-04-30T08:22:24.842Z,34.48
2019-04-30T08:24:01.088Z,34.59
2019-04-30T08:25:36.038Z,32.62
2019-04-30T08:27:10.715Z,35.23
2019-04-30T08:28:45.369Z,37.92
2019-04-30T08:30:26.265Z,33.60
2019-04-30T08:31:56.379Z,34.94
2019-04-30T08:33:31.022Z,35.40
2019-04-30T08:35:06.143Z,36.25
2019-04-30T08:36:40.816Z,39.62
2019-04-30T08:38:15.478Z,41.36
2019-04-30T08:39:51.135Z,42.91
2019-04-30T08:41:25.782Z,46.11
2019-04-30T08:43:00.451Z,43.26
2019-04-30T08:44:35.195Z,40.53
2019-04-30T08:46:12.117Z,40.58
2019-04-30T08:47:49.102Z,42.07
2019-04-30T08:49:23.485Z,41.65
2019-04-30T08:50:59.306Z,42.12
2019-04-30T08:52:34.429Z,41.82
2019-04-30T08:54:09.627Z,41.35
2019-04-30T08:55:44.403Z,42.61
2019-04-30T08:57:19.375Z,41.17
2019-04-30T08:58:54.918Z,40.40
2019-04-30T09:00:29.888Z,40.70
2019-04-30T09:02:15.313Z,43.52
2019-04-30T09:03:41.184Z,44.99
2019-04-30T09:05:27.992Z,45.44
2019-04-30T09:07:01.814Z,43.67
2019-04-30T09:08:39.919Z,42.75
2019-04-30T09:10:14.424Z,43.79
2019-04-30T09:11:55.170Z,45.17
2019-04-30T09:13:25.568Z,41.42
2019-04-30T09:15:00.210Z,41.87
2019-04-30T09:16:34.961Z,38.78
2019-04-30T09:18:12.402Z,42.69
2019-04-30T09:19:46.043Z,43.66
2019-04-30T09:21:20.705Z,41.64
2019-04-30T09:22:55.381Z,42.22
2019-04-30T09:24:31.091Z,42.32
2019-04-30T09:26:06.045Z,41.93
2019-04-30T09:27:40.683Z,40.92
2019-04-30T09:29:15.391Z,43.20
2019-04-30T09:30:50.065Z,43.64
2019-04-30T09:32:24.719Z,44.74
2019-04-30T09:34:01.028Z,43.33
2019-04-30T09:35:36.172Z,44.31
2019-04-30T09:37:10.913Z,42.99
2019-04-30T09:38:45.576Z,42.68
2019-04-30T09:40:21.224Z,45.38
2019-04-30T09:41:57.090Z,44.11
2019-04-30T09:43:31.744Z,46.67
2019-04-30T09:45:08.675Z,44.22
2019-04-30T09:46:42.907Z,45.52
2019-04-30T09:48:18.984Z,43.47
2019-04-30T09:49:53.899Z,41.28
2019-04-30T09:51:30.568Z,43.59
2019-04-30T09:53:06.103Z,42.56
2019-04-30T09:54:41.049Z,43.27
2019-04-30T09:56:16.020Z,43.41
2019-04-30T09:57:50.708Z,45.76
2019-04-30T09:59:25.429Z,44.85
2019-04-30T10:01:00.086Z,46.73
2019-04-30T10:02:34.822Z,45.38
2019-04-30T10:04:10.531Z,44.74
2019-04-30T10:05:45.686Z,45.64
2019-04-30T10:07:20.584Z,43.68
2019-04-30T10:08:55.252Z,46.52
2019-04-30T10:10:35.443Z,46.44
2019-04-30T10:12:12.912Z,44.49
2019-04-30T10:13:47.626Z,45.34
2019-04-30T10:15:36.919Z,45.43
2019-04-30T10:17:32.707Z,46.68
2019-04-30T10:19:09.767Z,47.84
2019-04-30T10:20:44.672Z,48.00
2019-04-30T10:22:19.397Z,47.85
2019-04-30T10:23:54.174Z,47.45
2019-04-30T10:25:28.975Z,46.53
2019-04-30T10:27:06.848Z,46.24
2019-04-30T10:28:43.361Z,46.99
2019-04-30T10:30:23.010Z,47.25
2019-04-30T10:31:58.771Z,47.12
2019-04-30T10:33:33.499Z,45.23
2019-04-30T10:35:08.401Z,47.85
2019-04-30T10:36:43.051Z,48.04
2019-04-30T10:38:19.501Z,48.40
2019-04-30T10:39:54.142Z,46.10
2019-04-30T10:41:29.125Z,47.85
2019-04-30T10:43:05.145Z,48.12
2019-04-30T10:44:39.792Z,47.83
2019-04-30T10:46:14.562Z,48.50
2019-04-30T10:47:49.308Z,50.30
2019-04-30T10:49:24.371Z,50.19
2019-04-30T10:50:59.332Z,50.46
2019-04-30T10:52:34.063Z,52.01
2019-04-30T10:54:09.029Z,50.36
2019-04-30T10:55:43.746Z,50.87
2019-04-30T10:57:18.518Z,51.37
2019-04-30T10:58:53.120Z,51.10
2019-04-30T11:00:39.264Z,51.13
2019-04-30T11:02:13.921Z,51.63
2019-04-30T11:03:48.753Z,51.03
2019-04-30T11:05:23.467Z,50.80
2019-04-30T11:07:00.010Z,52.29
2019-04-30T11:08:34.546Z,52.00
2019-04-30T11:10:09.648Z,52.09
2019-04-30T11:11:45.475Z,52.12
2019-04-30T11:13:20.121Z,54.16
2019-04-30T11:14:54.774Z,53.91
2019-04-30T11:16:29.807Z,53.62
2019-04-30T11:18:04.785Z,53.29
2019-04-30T11:19:39.658Z,53.23
2019-04-30T11:21:14.728Z,52.59
2019-04-30T11:22:49.643Z,52.96
2019-04-30T11:24:35.914Z,54.39
2019-04-30T11:26:01.587Z,53.51
2019-04-30T11:27:37.203Z,53.94
2019-04-30T11:29:12.278Z,53.50
2019-04-30T11:30:49.138Z,53.62
2019-04-30T11:32:24.852Z,55.21
2019-04-30T11:34:00.548Z,54.50
2019-04-30T11:35:35.400Z,54.78
2019-04-30T11:37:10.342Z,54.16
2019-04-30T11:38:45.104Z,53.47
2019-04-30T11:40:34.416Z,54.22
2019-04-30T11:42:02.915Z,54.84
2019-04-30T11:43:39.405Z,55.25
2019-04-30T11:45:20.387Z,54.09
2019-04-30T11:47:36.931Z,53.95
2019-04-30T11:49:11.673Z,53.54
2019-04-30T11:50:46.315Z,54.75
2019-04-30T11:52:21.232Z,54.95
2019-04-30T11:53:55.908Z,55.57
2019-04-30T11:55:31.498Z,56.30
2019-04-30T11:57:08.778Z,54.31
2019-04-30T11:58:42.922Z,54.75
2019-04-30T12:00:24.802Z,54.74
2019-04-30T12:02:01.178Z,55.43
2019-04-30T12:03:36.899Z,55.71
2019-04-30T12:05:13.874Z,56.32
2019-04-30T12:06:48.794Z,55.58
2019-04-30T12:08:29.395Z,55.83
2019-04-30T12:10:19.516Z,56.52
2019-04-30T12:11:54.206Z,56.75
2019-04-30T12:13:34.692Z,55.84
2019-04-30T12:15:09.602Z,56.28
2019-04-30T12:16:45.464Z,56.28
2019-04-30T12:18:20.142Z,55.86
2019-04-30T12:19:54.790Z,55.03
2019-04-30T12:21:29.521Z,54.47
2019-04-30T12:23:04.183Z,53.71
2019-04-30T12:24:38.976Z,53.49
2019-04-30T12:26:13.740Z,54.27
2019-04-30T12:27:48.993Z,55.00
2019-04-30T12:29:23.753Z,54.74
2019-04-30T12:30:58.932Z,54.68
2019-04-30T12:32:35.226Z,54.58
2019-04-30T12:34:10.012Z,54.70
2019-04-30T12:35:44.772Z,54.79
2019-04-30T12:37:19.538Z,54.33
2019-04-30T12:38:54.259Z,54.85
2019-04-30T12:40:32.360Z,55.43
2019-04-30T12:42:06.498Z,54.55
2019-04-30T12:43:41.157Z,53.60
2019-04-30T12:45:16.041Z,53.93
2019-04-30T12:46:51.605Z,53.13
2019-04-30T12:48:53.577Z,53.13
2019-04-30T12:50:34.778Z,52.84
2019-04-30T12:52:19.524Z,53.10
2019-04-30T12:54:03.707Z,54.17
2019-04-30T12:56:00.390Z,52.66
2019-04-30T12:57:40.814Z,52.66
2019-04-30T12:59:15.522Z,52.88
2019-04-30T13:00:50.190Z,52.05
2019-04-30T13:02:24.937Z,51.87
2019-04-30T13:04:01.455Z,51.87
2019-04-30T13:05:36.043Z,52.49
2019-04-30T13:07:11.665Z,53.04
2019-04-30T13:08:49.351Z,51.91
2019-04-30T13:10:24.154Z,51.91
2019-04-30T13:12:00.466Z,52.33
2019-04-30T13:13:40.042Z,52.95
2019-04-30T13:15:13.578Z,53.56
2019-04-30T13:16:49.048Z,52.75
2019-04-30T13:18:23.760Z,52.92
2019-04-30T13:19:58.487Z,52.87
2019-04-30T13:21:33.152Z,52.98
2019-04-30T13:23:08.786Z,52.70
2019-04-30T13:24:43.569Z,53.29
2019-04-30T13:26:18.647Z,53.68
2019-04-30T13:27:56.178Z,53.68
2019-04-30T13:29:36.140Z,53.89
2019-04-30T13:31:10.844Z,54.00
2019-04-30T13:32:52.232Z,53.69
2019-04-30T13:34:44.123Z,54.09
2019-04-30T13:36:19.843Z,54.50
2019-04-30T13:37:59.786Z,54.31
2019-04-30T13:39:49.782Z,54.77
2019-04-30T13:41:34.100Z,54.77
2019-04-30T13:43:09.259Z,54.87
2019-04-30T13:44:43.952Z,53.78
2019-04-30T13:46:18.678Z,53.78
2019-04-30T13:47:53.342Z,54.41
2019-04-30T13:49:30.053Z,53.74
2019-04-30T13:51:04.825Z,52.87
2019-04-30T13:52:39.573Z,53.23
2019-04-30T13:54:14.318Z,53.07
2019-04-30T13:55:48.995Z,53.07
2019-04-30T13:57:23.742Z,53.33
2019-04-30T13:58:59.544Z,53.33
2019-04-30T14:00:34.177Z,54.02
2019-04-30T14:02:08.913Z,54.69
2019-04-30T14:03:58.917Z,54.61
2019-04-30T14:05:33.320Z,54.37
2019-04-30T14:07:18.692Z,54.37
2019-04-30T14:08:54.349Z,54.91
2019-04-30T14:10:30.916Z,54.91
2019-04-30T14:12:05.639Z,54.54
2019-04-30T14:13:40.303Z,54.89
2019-04-30T14:15:15.915Z,54.34
2019-04-30T14:16:50.638Z,54.07
2019-04-30T14:18:30.759Z,54.07
2019-04-30T14:20:01.750Z,54.65
2019-04-30T14:21:36.410Z,54.77
2019-04-30T14:23:12.125Z,55.23
2019-04-30T14:24:46.774Z,54.40
2019-04-30T14:26:21.428Z,54.93
2019-04-30T14:27:56.058Z,51.93
2019-04-30T14:29:30.701Z,51.93
2019-04-30T14:31:05.789Z,52.04
2019-04-30T14:32:40.508Z,51.89
2019-04-30T14:34:15.230Z,52.36
2019-04-30T14:35:49.882Z,51.57
2019-04-30T14:37:24.530Z,51.57
2019-04-30T14:39:13.006Z,52.59
2019-04-30T14:40:37.331Z,53.02
2019-04-30T14:42:13.508Z,53.02
2019-04-30T14:43:53.477Z,53.15
2019-04-30T14:45:34.593Z,53.78
2019-04-30T14:47:30.965Z,53.45
2019-04-30T14:49:26.325Z,53.21
2019-04-30T14:51:01.769Z,53.05
2019-04-30T14:52:42.918Z,53.64
2019-04-30T14:54:22.872Z,53.78
2019-04-30T14:56:13.016Z,53.79
2019-04-30T14:58:20.424Z,53.74
2019-04-30T15:00:12.990Z,53.97
2019-04-30T15:02:22.035Z,53.12
2019-04-30T15:03:59.405Z,52.65
2019-04-30T15:05:40.532Z,52.34
2019-04-30T15:07:10.550Z,52.46
2019-04-30T15:08:45.195Z,53.37
2019-04-30T15:10:19.909Z,53.59
2019-04-30T15:11:54.571Z,53.55
2019-04-30T15:13:29.593Z,53.52
2019-04-30T15:15:04.546Z,52.92
2019-04-30T15:16:39.329Z,52.08
2019-04-30T15:18:14.092Z,52.12
2019-04-30T15:19:51.747Z,51.67
2019-04-30T15:21:25.198Z,52.22
2019-04-30T15:23:33.714Z,52.55
2019-04-30T15:25:08.460Z,52.55
2019-04-30T15:26:43.127Z,52.90
2019-04-30T15:28:17.826Z,52.62
2019-04-30T15:29:57.087Z,52.62
2019-04-30T15:31:29.644Z,53.54
2019-04-30T15:33:12.554Z,54.27
2019-04-30T15:34:48.938Z,53.91
2019-04-30T15:36:23.866Z,53.47
2019-04-30T15:37:59.550Z,53.47
2019-04-30T15:39:42.180Z,53.82
2019-04-30T15:41:17.125Z,53.45
2019-04-30T15:42:53.673Z,54.40
2019-04-30T15:44:28.473Z,54.40
2019-04-30T15:46:03.139Z,53.98
2019-04-30T15:47:38.720Z,53.98
2019-04-30T15:49:13.683Z,53.47
2019-04-30T15:50:49.230Z,53.68
2019-04-30T15:52:24.142Z,53.05
2019-04-30T15:53:58.861Z,53.19
2019-04-30T15:55:33.530Z,53.43
2019-04-30T15:57:08.881Z,53.83
2019-04-30T15:58:45.671Z,53.43
2019-04-30T16:00:20.696Z,54.07
2019-04-30T16:01:58.457Z,54.23
2019-04-30T16:03:34.412Z,54.70
2019-04-30T16:05:22.614Z,54.66
2019-04-30T16:06:58.482Z,54.40
2019-04-30T16:08:41.356Z,54.37
2019-04-30T16:10:33.608Z,54.74
2019-04-30T16:12:16.061Z,54.55
2019-04-30T16:14:18.915Z,54.05
2019-04-30T16:15:53.605Z,54.44
2019-04-30T16:17:29.183Z,53.96
2019-04-30T16:19:04.072Z,54.54
2019-04-30T16:20:39.282Z,54.54
2019-04-30T16:22:14.076Z,54.40
2019-04-30T16:23:49.269Z,54.64
2019-04-30T16:25:24.048Z,54.55
2019-04-30T16:26:59.407Z,54.86
2019-04-30T16:28:34.278Z,54.69
2019-04-30T16:30:09.584Z,54.35
2019-04-30T16:31:44.942Z,54.21
2019-04-30T16:33:19.605Z,54.48
2019-04-30T16:34:54.254Z,53.91
2019-04-30T16:36:29.182Z,53.68
2019-04-30T16:38:04.006Z,54.51
2019-04-30T16:39:39.757Z,54.51
2019-04-30T16:41:14.616Z,54.35
2019-04-30T16:42:49.349Z,54.62
2019-04-30T16:44:24.012Z,54.73
2019-04-30T16:45:58.958Z,54.75
2019-04-30T16:47:52.461Z,54.49
2019-04-30T16:49:28.896Z,54.94
2019-04-30T16:51:03.656Z,54.91
2019-04-30T16:52:39.395Z,54.38
2019-04-30T16:54:14.206Z,54.38
2019-04-30T16:55:50.598Z,54.33
2019-04-30T16:57:50.221Z,54.24
2019-04-30T16:59:30.729Z,54.00
2019-04-30T17:01:08.840Z,53.49
2019-04-30T17:02:46.391Z,53.93
2019-04-30T17:04:30.138Z,53.71
2019-04-30T17:06:11.539Z,53.96
2019-04-30T17:07:59.250Z,54.20
2019-04-30T17:09:40.746Z,53.76
2019-04-30T17:11:33.388Z,53.76
2019-04-30T17:13:18.888Z,54.06
2019-04-30T17:15:19.622Z,53.69
2019-04-30T17:16:54.283Z,53.49
2019-04-30T17:18:29.709Z,54.36
2019-04-30T17:20:05.838Z,54.15
2019-04-30T17:21:40.487Z,54.20
2019-04-30T17:23:15.141Z,54.96
2019-04-30T17:24:50.868Z,55.08
2019-04-30T17:26:25.603Z,54.56
2019-04-30T17:28:01.448Z,54.99
2019-04-30T17:29:36.503Z,55.06
2019-04-30T17:31:13.417Z,55.05
2019-04-30T17:32:49.672Z,55.05
2019-04-30T17:34:23.941Z,55.30
2019-04-30T17:35:58.609Z,55.20
2019-04-30T17:37:33.331Z,54.98
2019-04-30T17:39:11.299Z,55.23
2019-04-30T17:40:46.429Z,54.92
2019-04-30T17:42:22.104Z,54.64
2019-04-30T17:43:58.884Z,55.20
2019-04-30T17:45:33.248Z,55.20
2019-04-30T17:47:09.119Z,55.91
2019-04-30T17:48:43.843Z,55.95
2019-04-30T17:50:18.874Z,56.23
2019-04-30T17:51:53.581Z,56.50
2019-04-30T17:53:28.770Z,56.03
2019-04-30T17:55:05.605Z,56.41
2019-04-30T17:56:40.449Z,56.32
2019-04-30T17:58:15.117Z,55.91
2019-04-30T17:59:50.919Z,55.93
2019-04-30T18:01:25.581Z,55.79
2019-04-30T18:03:00.336Z,55.08
2019-04-30T18:04:34.988Z,55.30
2019-04-30T18:06:09.660Z,54.86
2019-04-30T18:07:44.987Z,54.81
2019-04-30T18:09:20.671Z,54.53
2019-04-30T18:10:55.426Z,54.63
2019-04-30T18:12:30.165Z,55.19
2019-04-30T18:14:05.507Z,54.85
2019-04-30T18:15:41.250Z,54.69
2019-04-30T18:17:15.923Z,54.35
2019-04-30T18:19:02.001Z,54.83
2019-04-30T18:20:51.180Z,54.13
2019-04-30T18:22:40.000Z,53.73
2019-04-30T18:24:29.429Z,54.64
2019-04-30T18:26:09.041Z,55.07
2019-04-30T18:27:50.432Z,54.63
2019-04-30T18:29:25.193Z,54.95
2019-04-30T18:30:59.832Z,54.30
2019-04-30T18:32:34.504Z,54.44
2019-04-30T18:34:09.517Z,54.45
2019-04-30T18:35:44.193Z,54.47
2019-04-30T18:37:18.981Z,54.67
2019-04-30T18:38:53.687Z,54.26
2019-04-30T18:40:29.575Z,54.26
2019-04-30T18:42:05.796Z,54.48
2019-04-30T18:43:40.663Z,54.57
2019-04-30T18:45:15.450Z,54.57
2019-04-30T18:46:50.113Z,55.01
2019-04-30T18:48:25.742Z,54.56
2019-04-30T18:50:00.424Z,54.56
2019-04-30T18:51:39.508Z,54.96
2019-04-30T18:53:18.457Z,54.69
2019-04-30T18:54:52.839Z,54.83
2019-04-30T18:56:28.997Z,55.04
2019-04-30T18:58:03.800Z,54.88
2019-04-30T18:59:38.527Z,55.37
2019-04-30T19:01:13.540Z,55.42
2019-04-30T19:02:48.581Z,55.94
2019-04-30T19:04:23.366Z,55.94
2019-04-30T19:06:02.247Z,56.27
2019-04-30T19:07:43.039Z,56.64
2019-04-30T19:09:29.782Z,56.70
2019-04-30T19:11:14.103Z,57.25
2019-04-30T19:13:00.913Z,57.25
2019-04-30T19:14:44.595Z,57.43
2019-04-30T19:16:40.005Z,57.50
2019-04-30T19:18:32.520Z,57.88
2019-04-30T19:20:25.646Z,57.88
2019-04-30T19:22:00.297Z,58.42
2019-04-30T19:23:35.200Z,58.30
2019-04-30T19:25:11.982Z,58.31
2019-04-30T19:26:48.620Z,58.91
2019-04-30T19:28:28.672Z,59.29
2019-04-30T19:30:04.080Z,58.62
2019-04-30T19:31:39.484Z,58.67
2019-04-30T19:33:14.222Z,58.67
2019-04-30T19:34:49.070Z,59.12
2019-04-30T19:36:34.966Z,58.87
2019-04-30T19:40:11.259Z,58.29
2019-04-30T19:41:46.053Z,57.84
2019-04-30T19:44:05.392Z,57.51
2019-04-30T19:47:59.733Z,57.18
2019-04-30T19:49:34.384Z,57.18
2019-04-30T19:51:09.229Z,57.08
2019-04-30T19:52:43.953Z,56.32
2019-04-30T19:54:19.232Z,56.32
2019-04-30T19:55:54.032Z,56.76
2019-04-30T19:57:28.741Z,56.76
2019-04-30T19:59:05.759Z,56.25
2019-04-30T20:00:40.532Z,56.79
2019-04-30T20:02:15.606Z,56.79
2019-04-30T20:03:50.257Z,56.70
2019-04-30T20:05:24.925Z,56.27
2019-04-30T20:06:59.584Z,56.25
2019-04-30T20:08:34.260Z,56.25
2019-04-30T20:10:09.114Z,56.34
2019-04-30T20:11:43.726Z,55.97
2019-04-30T20:13:30.908Z,55.99
2019-04-30T20:14:54.896Z,56.91
2019-04-30T20:16:29.546Z,56.61
2019-04-30T20:18:04.326Z,56.61
2019-04-30T20:20:15.800Z,56.49
2019-04-30T20:21:53.600Z,56.49
2019-04-30T20:23:26.820Z,56.85
2019-04-30T20:25:01.485Z,57.20
2019-04-30T20:26:36.163Z,57.18
2019-04-30T20:28:54.194Z,57.32
2019-04-30T20:30:29.249Z,57.59
2019-04-30T20:32:04.302Z,57.59
2019-04-30T20:33:39.013Z,58.12
2019-04-30T20:35:14.666Z,57.82
2019-04-30T20:36:49.328Z,58.08
2019-04-30T20:38:41.339Z,58.38
2019-04-30T20:40:18.561Z,58.64
2019-04-30T20:41:54.063Z,58.50
2019-04-30T20:43:28.727Z,59.18
2019-04-30T20:45:03.989Z,59.07
2019-04-30T20:46:39.314Z,59.19
2019-04-30T20:48:39.352Z,59.19
2019-04-30T20:50:14.401Z,59.27
2019-04-30T20:51:55.657Z,59.53
2019-04-30T20:53:26.468Z,59.61
2019-04-30T20:55:01.166Z,59.98